createdAt,value
2023-06-19T00:00:00.987Z,16.7
2023-06-19T00:04:00.981Z,16.8
2023-06-19T00:05:00.987Z,16.7
2023-06-19T00:06:01.006Z,16.8
2023-06-19T00:11:01.010Z,16.6
2023-06-19T00:12:00.974Z,16.7
2023-06-19T00:14:01.123Z,16.8
2023-06-19T00:15:01.139Z,16.7
2023-06-19T00:17:01.052Z,16.9
2023-06-19T00:22:01.037Z,16.6
2023-06-19T00:24:01.054Z,16.7
2023-06-19T00:26:00.963Z,16.6
2023-06-19T00:28:01.021Z,16.7
2023-06-19T00:31:00.942Z,16.7
2023-06-19T00:34:00.969Z,16.6
2023-06-19T00:36:00.967Z,16.6
2023-06-19T00:38:00.952Z,16.5
2023-06-19T00:39:00.981Z,16.6
2023-06-19T00:43:00.955Z,16.8
2023-06-19T00:47:01.220Z,16.9
2023-06-19T00:48:01.077Z,16.8
2023-06-19T00:58:01.023Z,16.9
2023-06-19T01:00:01.092Z,17
2023-06-19T01:03:01.067Z,17.1
2023-06-19T01:04:01.053Z,16.9
2023-06-19T01:05:00.986Z,17
2023-06-19T01:10:00.988Z,17.1
2023-06-19T01:15:01.105Z,17.3
2023-06-19T01:18:01.023Z,17.3
2023-06-19T01:19:00.971Z,17.4
2023-06-19T01:24:01.011Z,17.4
2023-06-19T01:26:00.965Z,17.5
2023-06-19T01:28:01.030Z,17.4
2023-06-19T01:32:00.958Z,17.6
2023-06-19T01:33:01.036Z,17.5
2023-06-19T01:34:01.013Z,17.6
2023-06-19T01:40:01.005Z,17.6
2023-06-19T01:41:00.998Z,17.7
2023-06-19T01:46:01.007Z,17.8
2023-06-19T01:49:01.005Z,17.7
2023-06-19T01:51:00.978Z,17.9
2023-06-19T01:52:00.992Z,18
2023-06-19T01:55:00.962Z,18.1
2023-06-19T01:56:01.052Z,18
2023-06-19T01:58:01.076Z,18
2023-06-19T02:00:01.000Z,18.1
2023-06-19T02:03:01.158Z,18.1
2023-06-19T02:07:00.949Z,18.2
2023-06-19T02:08:00.998Z,18.3
2023-06-19T02:12:01.086Z,18.5
2023-06-19T02:15:01.074Z,18.4
2023-06-19T02:17:00.963Z,18.4
2023-06-19T02:18:01.040Z,18.3
2023-06-19T02:21:01.016Z,18.5
2023-06-19T02:24:01.009Z,18.4
2023-06-19T02:31:00.981Z,18.4
2023-06-19T02:34:00.951Z,18.5
2023-06-19T02:35:01.024Z,18.6
2023-06-19T02:39:00.962Z,18.7
2023-06-19T02:40:00.959Z,18.6
2023-06-19T02:41:00.993Z,18.7
2023-06-19T02:43:00.959Z,18.6
2023-06-19T02:45:01.104Z,18.7
2023-06-19T02:49:00.965Z,18.8
2023-06-19T02:50:00.957Z,18.7
2023-06-19T02:52:00.988Z,18.8
2023-06-19T02:54:00.996Z,18.8
2023-06-19T02:56:00.979Z,18.8
2023-06-19T03:00:01.221Z,18.9
2023-06-19T03:03:01.034Z,19
2023-06-19T03:04:00.968Z,18.9
2023-06-19T03:09:00.958Z,19
2023-06-19T03:13:00.937Z,19.1
2023-06-19T03:15:01.031Z,19
2023-06-19T03:18:01.055Z,18.9
2023-06-19T03:26:00.962Z,19.2
2023-06-19T03:28:00.962Z,19.2
2023-06-19T03:30:01.050Z,19.2
2023-06-19T03:33:01.087Z,19.3
2023-06-19T03:34:00.951Z,19.2
2023-06-19T03:36:00.960Z,19.1
2023-06-19T03:38:00.952Z,19.2
2023-06-19T03:40:00.948Z,19.3
2023-06-19T03:41:00.979Z,19.4
2023-06-19T03:45:01.043Z,19.5
2023-06-19T03:47:00.954Z,19.4
2023-06-19T03:48:01.052Z,19.3
2023-06-19T03:50:11.460Z,19.4
2023-06-19T03:51:00.997Z,19.5
2023-06-19T03:53:01.000Z,19.4
2023-06-19T03:56:00.965Z,19.6
2023-06-19T03:58:01.044Z,19.5
2023-06-19T04:00:01.094Z,19.6
2023-06-19T04:03:01.067Z,19.7
2023-06-19T04:05:00.934Z,19.6
2023-06-19T04:07:00.931Z,19.7
2023-06-19T04:08:00.993Z,19.6
2023-06-19T04:10:01.155Z,19.7
2023-06-19T04:13:00.952Z,19.6
2023-06-19T04:14:00.996Z,19.5
2023-06-19T04:15:01.074Z,19.6
2023-06-19T04:24:01.005Z,19.7
2023-06-19T04:25:00.990Z,19.6
2023-06-19T04:27:00.975Z,19.6
2023-06-19T04:29:00.944Z,19.6
2023-06-19T04:31:00.984Z,19.7
2023-06-19T04:33:01.001Z,19.7
2023-06-19T04:35:00.925Z,19.6
2023-06-19T04:36:01.022Z,19.7
2023-06-19T04:38:01.020Z,19.6
2023-06-19T04:42:00.992Z,19.8
2023-06-19T04:44:00.977Z,19.8
2023-06-19T04:45:01.108Z,19.7
2023-06-19T04:51:01.054Z,19.9
2023-06-19T04:53:00.980Z,19.7
2023-06-19T04:54:00.975Z,19.9
2023-06-19T04:57:00.963Z,20
2023-06-19T04:58:00.998Z,20.1
2023-06-19T04:59:00.955Z,20
2023-06-19T05:04:01.332Z,20.1
2023-06-19T05:06:01.405Z,20.2
2023-06-19T05:08:01.446Z,20.3
2023-06-19T05:09:01.435Z,20.1
2023-06-19T05:11:01.258Z,20.3
2023-06-19T05:13:01.165Z,20.3
2023-06-19T05:15:01.275Z,20.2
2023-06-19T05:21:01.223Z,20.4
2023-06-19T05:24:01.098Z,20.4
2023-06-19T05:25:01.297Z,20.3
2023-06-19T05:28:03.065Z,20.4
2023-06-19T05:32:01.162Z,20.6
2023-06-19T05:35:01.342Z,20.5
2023-06-19T05:38:01.094Z,20.7
2023-06-19T05:40:01.176Z,20.6
2023-06-19T05:44:01.208Z,20.7
2023-06-19T05:50:01.076Z,20.9
2023-06-19T05:51:01.067Z,20.8
2023-06-19T05:53:01.081Z,20.8
2023-06-19T05:56:01.004Z,20.8
2023-06-19T05:57:01.033Z,20.9
2023-06-19T05:58:01.053Z,20.8
2023-06-19T05:59:01.081Z,21
2023-06-19T06:02:01.175Z,21
2023-06-19T06:04:01.068Z,20.9
2023-06-19T06:05:01.138Z,21
2023-06-19T06:07:01.035Z,21
2023-06-19T06:14:00.984Z,21
2023-06-19T06:16:01.199Z,21.1
2023-06-19T06:18:01.074Z,21.2
2023-06-19T06:21:01.075Z,21
2023-06-19T06:23:01.061Z,21.2
2023-06-19T06:26:01.037Z,20.9
2023-06-19T06:27:01.081Z,21.1
2023-06-19T06:31:01.088Z,21.1
2023-06-19T06:33:01.091Z,21.2
2023-06-19T06:40:01.035Z,21.2
2023-06-19T06:41:01.037Z,21.3
2023-06-19T06:42:01.011Z,21.2
2023-06-19T06:44:01.144Z,21.1
2023-06-19T06:46:01.013Z,21.3
2023-06-19T06:48:01.111Z,21.2
2023-06-19T06:53:00.992Z,21.1
2023-06-19T06:55:01.072Z,21.2
2023-06-19T07:00:01.003Z,21.2
2023-06-19T07:01:01.041Z,21.3
2023-06-19T07:03:01.161Z,21.4
2023-06-19T07:06:01.014Z,21.4
2023-06-19T07:07:00.996Z,21.5
2023-06-19T07:09:01.046Z,21.4
2023-06-19T07:11:01.023Z,21.7
2023-06-19T07:12:01.057Z,21.5
2023-06-19T07:14:01.085Z,21.7
2023-06-19T07:16:00.974Z,21.7
2023-06-19T07:17:01.047Z,21.8
2023-06-19T07:21:01.030Z,21.8
2023-06-19T07:23:01.052Z,21.9
2023-06-19T07:27:00.989Z,22.1
2023-06-19T07:28:01.010Z,22
2023-06-19T07:29:01.014Z,22.1
2023-06-19T07:31:00.998Z,22.2
2023-06-19T07:37:01.050Z,22.3
2023-06-19T07:38:01.073Z,22.2
2023-06-19T07:40:00.973Z,22.3
2023-06-19T07:42:00.967Z,22.2
2023-06-19T07:43:01.069Z,22.3
2023-06-19T07:48:01.123Z,22.4
2023-06-19T07:49:01.034Z,22.2
2023-06-19T07:51:01.108Z,22.2
2023-06-19T07:53:01.020Z,22.5
2023-06-19T07:55:01.030Z,22.4
2023-06-19T07:56:01.061Z,22.5
2023-06-19T07:58:00.986Z,22.6
2023-06-19T07:59:01.056Z,22.7
2023-06-19T08:01:01.031Z,22.8
2023-06-19T08:03:01.100Z,22.9
2023-06-19T08:05:01.039Z,23
2023-06-19T08:07:01.015Z,23.1
2023-06-19T08:11:01.027Z,23.4
2023-06-19T08:13:01.002Z,23.5
2023-06-19T08:15:01.206Z,23.7
2023-06-19T08:17:01.153Z,23.9
2023-06-19T08:19:01.032Z,24
2023-06-19T08:21:01.058Z,24.1
2023-06-19T08:23:01.049Z,24.3
2023-06-19T08:24:01.032Z,24.4
2023-06-19T08:27:01.011Z,24.5
2023-06-19T08:31:01.063Z,24.9
2023-06-19T08:33:01.037Z,24.9
2023-06-19T08:37:01.025Z,25.2
2023-06-19T08:39:01.002Z,25.4
2023-06-19T08:40:01.141Z,25.5
2023-06-19T08:42:01.009Z,25.7
2023-06-19T08:44:00.967Z,25.9
2023-06-19T08:45:01.037Z,26
2023-06-19T08:47:01.068Z,26.4
2023-06-19T08:49:01.071Z,26.6
2023-06-19T08:51:00.995Z,26.6
2023-06-19T08:53:01.000Z,26.9
2023-06-19T08:55:01.011Z,27.1
2023-06-19T08:56:01.084Z,27.2
2023-06-19T09:00:01.069Z,27.6
2023-06-19T09:02:01.026Z,27.7
2023-06-19T09:04:01.075Z,27.9
2023-06-19T09:05:01.025Z,27.7
2023-06-19T09:07:01.123Z,27.7
2023-06-19T09:11:01.103Z,27.6
2023-06-19T09:13:01.032Z,28
2023-06-19T09:16:01.025Z,27.6
2023-06-19T09:20:00.981Z,27.5
2023-06-19T09:23:01.065Z,27.7
2023-06-19T09:24:01.223Z,27.8
2023-06-19T09:26:00.999Z,27.9
2023-06-19T09:27:01.107Z,28
2023-06-19T09:29:01.029Z,28.2
2023-06-19T09:30:01.203Z,28.1
2023-06-19T09:32:00.999Z,28.1
2023-06-19T09:34:01.003Z,28.3
2023-06-19T09:35:01.190Z,28.1
2023-06-19T09:38:01.050Z,28.2
2023-06-19T09:39:01.105Z,28.1
2023-06-19T09:40:01.192Z,28.2
2023-06-19T09:44:01.061Z,28.3
2023-06-19T09:46:01.001Z,28.4
2023-06-19T09:47:01.150Z,28.3
2023-06-19T09:48:01.248Z,28.5
2023-06-19T09:50:01.091Z,28.7
2023-06-19T09:53:02.273Z,29
2023-06-19T09:56:01.065Z,29.2
2023-06-19T09:57:01.153Z,29.3
2023-06-19T09:59:01.065Z,29.5
2023-06-19T10:01:01.048Z,29.6
2023-06-19T10:04:01.048Z,29.8
2023-06-19T10:07:01.105Z,30.1
2023-06-19T10:10:00.988Z,30.2
2023-06-19T10:12:00.983Z,30.4
2023-06-19T10:13:01.041Z,30.5
2023-06-19T10:15:01.217Z,30.7
2023-06-19T10:17:01.120Z,30.6
2023-06-19T10:20:01.008Z,30.7
2023-06-19T10:21:01.012Z,30.8
2023-06-19T10:26:02.125Z,30.9
2023-06-19T10:31:01.186Z,31
2023-06-19T10:32:01.126Z,31.1
2023-06-19T10:34:01.098Z,31
2023-06-19T10:35:01.053Z,31.3
2023-06-19T10:38:01.005Z,31.1
2023-06-19T10:39:01.061Z,31.2
2023-06-19T10:41:01.084Z,31.3
2023-06-19T10:42:01.164Z,31.2
2023-06-19T10:44:01.089Z,31.2
2023-06-19T10:45:01.120Z,31.1
2023-06-19T10:47:01.172Z,31.2
2023-06-19T10:50:00.995Z,30.9
2023-06-19T10:52:00.988Z,31
2023-06-19T10:54:01.049Z,31.3
2023-06-19T10:55:01.064Z,31.1
2023-06-19T10:56:01.072Z,30.9
2023-06-19T10:58:01.063Z,31.1
2023-06-19T10:59:01.122Z,31
2023-06-19T11:00:01.242Z,31.2
2023-06-19T11:02:01.087Z,30.9
2023-06-19T11:03:01.152Z,30.8
2023-06-19T11:04:01.115Z,31
2023-06-19T11:06:01.063Z,30.6
2023-06-19T11:07:01.074Z,30.7
2023-06-19T11:10:01.013Z,30.5
2023-06-19T11:11:01.121Z,30.6
2023-06-19T11:14:01.038Z,30.4
2023-06-19T11:16:00.972Z,30.5
2023-06-19T11:17:01.423Z,30.4
2023-06-19T11:21:02.729Z,30.3
2023-06-19T11:23:01.097Z,30.1
2023-06-19T11:25:01.063Z,30.1
2023-06-19T11:28:01.070Z,30.2
2023-06-19T11:32:00.961Z,30
2023-06-19T11:34:01.114Z,29.7
2023-06-19T11:35:01.129Z,29.8
2023-06-19T11:37:01.173Z,29.7
2023-06-19T11:39:01.061Z,29.5
2023-06-19T11:42:00.989Z,29.3
2023-06-19T11:43:01.022Z,29.4
2023-06-19T11:44:01.079Z,29.3
2023-06-19T11:46:01.029Z,29
2023-06-19T11:47:01.189Z,29.1
2023-06-19T11:51:01.134Z,29
2023-06-19T11:54:01.024Z,29
2023-06-19T11:58:00.984Z,28.9
2023-06-19T11:59:01.022Z,29
2023-06-19T12:01:01.052Z,28.8
2023-06-19T12:02:01.203Z,29
2023-06-19T12:05:01.101Z,28.8
2023-06-19T12:07:01.111Z,28.8
2023-06-19T12:09:01.023Z,28.7
2023-06-19T12:11:01.081Z,28.8
2023-06-19T12:12:01.193Z,28.7
2023-06-19T12:13:01.199Z,28.6
2023-06-19T12:14:01.185Z,28.7
2023-06-19T12:15:01.646Z,28.9
2023-06-19T12:18:01.214Z,28.8
2023-06-19T12:19:01.032Z,28.7
2023-06-19T12:23:01.160Z,28.9
2023-06-19T12:27:01.010Z,29
2023-06-19T12:29:01.113Z,29.1
2023-06-19T12:31:01.166Z,29.3
2023-06-19T12:33:01.075Z,29.6
2023-06-19T12:35:01.055Z,29.8
2023-06-19T12:38:01.245Z,30
2023-06-19T12:40:00.980Z,30.1
2023-06-19T12:46:01.091Z,30.2
2023-06-19T12:49:01.191Z,30.3
2023-06-19T12:51:01.052Z,30.3
2023-06-19T12:52:01.050Z,30.4
2023-06-19T12:54:01.028Z,30.3
2023-06-19T12:55:01.150Z,30.4
2023-06-19T13:01:01.086Z,30.6
2023-06-19T13:02:01.118Z,30.4
2023-06-19T13:08:01.166Z,30.5
2023-06-19T13:11:01.000Z,30.6
2023-06-19T13:12:01.105Z,30.7
2023-06-19T13:14:01.131Z,30.8
2023-06-19T13:15:01.255Z,30.7
2023-06-19T13:19:01.156Z,30.8
2023-06-19T13:22:01.074Z,30.8
2023-06-19T13:23:01.121Z,31
2023-06-19T13:25:01.080Z,30.9
2023-06-19T13:28:01.071Z,30.7
2023-06-19T13:31:01.060Z,30.5
2023-06-19T13:32:01.069Z,30.4
2023-06-19T13:34:01.172Z,30.6
2023-06-19T13:37:01.206Z,30.6
2023-06-19T13:39:01.040Z,30.8
2023-06-19T13:41:01.057Z,30.8
2023-06-19T13:42:01.081Z,31
2023-06-19T13:45:01.115Z,31.1
2023-06-19T13:49:01.241Z,31.2
2023-06-19T13:52:01.006Z,31.1
2023-06-19T13:53:01.130Z,31.2
2023-06-19T13:56:00.981Z,31.4
2023-06-19T13:59:01.092Z,31.5
2023-06-19T14:02:01.042Z,31.4
2023-06-19T14:03:01.155Z,31.6
2023-06-19T14:05:01.079Z,31.6
2023-06-19T14:06:01.226Z,31.3
2023-06-19T14:08:01.110Z,31.3
2023-06-19T14:10:00.992Z,31.2
2023-06-19T14:11:01.082Z,31.3
2023-06-19T14:15:01.307Z,31.4
2023-06-19T14:18:01.104Z,31.5
2023-06-19T14:19:01.267Z,31.6
2023-06-19T14:21:01.134Z,31.7
2023-06-19T14:27:01.052Z,31.7
2023-06-19T14:29:01.004Z,31.7
2023-06-19T14:30:01.072Z,31.6
2023-06-19T14:31:01.193Z,31.7
2023-06-19T14:33:01.100Z,31.7
2023-06-19T14:35:01.033Z,31.6
2023-06-19T14:40:00.993Z,31.7
2023-06-19T14:41:01.068Z,31.8
2023-06-19T14:43:01.108Z,31.7
2023-06-19T14:48:01.073Z,32
2023-06-19T14:52:01.051Z,32
2023-06-19T14:54:01.028Z,31.8
2023-06-19T14:56:01.022Z,32.1
2023-06-19T14:57:01.132Z,31.9
2023-06-19T15:00:01.248Z,31.8
2023-06-19T15:03:01.100Z,31.7
2023-06-19T15:07:01.066Z,31.5
2023-06-19T15:10:01.143Z,31.4
2023-06-19T15:11:01.135Z,31.3
2023-06-19T15:13:01.079Z,31.2
2023-06-19T15:18:01.047Z,31.3
2023-06-19T15:21:01.115Z,31.2
2023-06-19T15:25:01.127Z,31
2023-06-19T15:28:01.044Z,30.9
2023-06-19T15:29:01.107Z,30.8
2023-06-19T15:31:01.030Z,30.9
2023-06-19T15:33:01.140Z,30.8
2023-06-19T15:37:01.012Z,30.6
2023-06-19T15:41:01.032Z,30.6
2023-06-19T15:43:01.066Z,30.7
2023-06-19T15:49:01.099Z,30.7
2023-06-19T15:52:00.960Z,30.7
2023-06-19T15:55:01.031Z,30.6
2023-06-19T15:57:01.017Z,30.6
2023-06-19T16:01:01.136Z,30.8
2023-06-19T16:03:01.263Z,30.6
2023-06-19T16:04:01.283Z,30.7
2023-06-19T16:07:01.018Z,30.6
2023-06-19T16:08:01.090Z,30.5
2023-06-19T16:10:00.977Z,30.4
2023-06-19T16:14:01.684Z,30.3
2023-06-19T16:16:01.072Z,30.2
2023-06-19T16:17:01.097Z,30.3
2023-06-19T16:19:01.127Z,30.1
2023-06-19T16:21:01.172Z,30
2023-06-19T16:23:01.082Z,30
2023-06-19T16:25:01.069Z,30
2023-06-19T16:26:01.190Z,29.9
2023-06-19T16:29:01.138Z,29.7
2023-06-19T16:31:01.143Z,29.6
2023-06-19T16:33:01.095Z,29.4
2023-06-19T16:35:01.077Z,29.5
2023-06-19T16:38:00.969Z,29.2
2023-06-19T16:40:01.048Z,29
2023-06-19T16:41:01.297Z,29.1
2023-06-19T16:44:01.091Z,29
2023-06-19T16:47:01.099Z,28.9
2023-06-19T16:50:01.024Z,28.9
2023-06-19T16:51:01.076Z,29
2023-06-19T16:53:01.058Z,29
2023-06-19T16:54:01.292Z,28.9
2023-06-19T16:56:01.037Z,28.9
2023-06-19T16:58:01.031Z,28.8
2023-06-19T17:00:01.012Z,28.7
2023-06-19T17:04:00.964Z,28.8
2023-06-19T17:05:01.019Z,28.7
2023-06-19T17:07:01.083Z,28.8
2023-06-19T17:13:01.206Z,28.5
2023-06-19T17:15:01.137Z,28.5
2023-06-19T17:17:01.103Z,28.3
2023-06-19T17:19:01.070Z,28.4
2023-06-19T17:21:01.063Z,28.4
2023-06-19T17:23:01.069Z,28
2023-06-19T17:26:00.959Z,28.1
2023-06-19T17:28:01.008Z,27.9
2023-06-19T17:29:01.021Z,28.1
2023-06-19T17:31:01.059Z,27.9
2023-06-19T17:32:01.172Z,28.2
2023-06-19T17:35:01.136Z,27.7
2023-06-19T17:38:01.009Z,27.9
2023-06-19T17:39:01.092Z,27.6
2023-06-19T17:41:01.021Z,27.5
2023-06-19T17:43:01.061Z,27.4
2023-06-19T17:45:01.290Z,27.4
2023-06-19T17:47:01.224Z,27.2
2023-06-19T17:49:01.145Z,27.4
2023-06-19T17:51:01.036Z,27.2
2023-06-19T17:53:01.051Z,27
2023-06-19T17:55:01.037Z,27.1
2023-06-19T17:56:01.040Z,27
2023-06-19T17:58:01.010Z,26.9
2023-06-19T18:02:01.007Z,26.8
2023-06-19T18:03:01.202Z,26.9
2023-06-19T18:05:01.027Z,26.6
2023-06-19T18:07:01.048Z,26.5
2023-06-19T18:08:01.195Z,26.6
2023-06-19T18:10:01.068Z,26.4
2023-06-19T18:11:01.056Z,26.5
2023-06-19T18:13:01.063Z,26.5
2023-06-19T18:15:01.292Z,26.1
2023-06-19T18:17:01.179Z,26.2
2023-06-19T18:20:01.026Z,25.9
2023-06-19T18:21:01.016Z,26
2023-06-19T18:27:01.065Z,25.7
2023-06-19T18:29:01.217Z,25.6
2023-06-19T18:32:00.975Z,25.5
2023-06-19T18:33:01.128Z,25.7
2023-06-19T18:35:01.079Z,25.4
2023-06-19T18:40:01.019Z,25.4
2023-06-19T18:42:01.090Z,25.2
2023-06-19T18:46:01.039Z,25.1
2023-06-19T18:48:01.126Z,25.4
2023-06-19T18:50:01.032Z,25
2023-06-19T18:51:01.031Z,25.1
2023-06-19T18:52:01.022Z,25.2
2023-06-19T18:53:01.089Z,24.9
2023-06-19T18:55:01.035Z,25
2023-06-19T18:56:01.047Z,24.9
2023-06-19T18:58:00.973Z,25
2023-06-19T19:00:01.051Z,24.7
2023-06-19T19:02:01.045Z,24.8
2023-06-19T19:04:01.062Z,24.7
2023-06-19T19:09:01.196Z,24.8
2023-06-19T19:11:01.057Z,24.6
2023-06-19T19:13:01.045Z,24.7
2023-06-19T19:14:01.085Z,24.5
2023-06-19T19:15:01.130Z,24.4
2023-06-19T19:19:01.081Z,24.5
2023-06-19T19:21:01.056Z,24.3
2023-06-19T19:25:01.075Z,24.2
2023-06-19T19:27:01.124Z,24.3
2023-06-19T19:29:01.119Z,24.3
2023-06-19T19:32:00.958Z,24.2
2023-06-19T19:33:01.089Z,24.1
2023-06-19T19:35:01.128Z,24.3
2023-06-19T19:38:01.036Z,23.9
2023-06-19T19:39:01.042Z,23.8
2023-06-19T19:42:01.027Z,24.1
2023-06-19T19:43:01.122Z,23.8
2023-06-19T19:45:02.663Z,23.8
2023-06-19T19:47:01.067Z,23.6
2023-06-19T19:49:01.062Z,23.7
2023-06-19T19:51:01.034Z,23.7
2023-06-19T19:53:01.056Z,23.5
2023-06-19T19:55:01.104Z,23.4
2023-06-19T19:58:00.981Z,23.3
2023-06-19T19:59:01.079Z,23.2
2023-06-19T20:01:01.012Z,23.1
2023-06-19T20:04:01.117Z,23
2023-06-19T20:09:01.017Z,22.9
2023-06-19T20:11:00.984Z,22.8
2023-06-19T20:13:00.972Z,22.6
2023-06-19T20:16:01.031Z,22.6
2023-06-19T20:17:01.007Z,22.7
2023-06-19T20:19:00.981Z,22.7
2023-06-19T20:21:01.006Z,22.6
2023-06-19T20:22:01.022Z,22.2
2023-06-19T20:24:01.056Z,22.3
2023-06-19T20:29:01.019Z,22.1
2023-06-19T20:31:00.978Z,22.2
2023-06-19T20:33:01.036Z,22.3
2023-06-19T20:35:01.011Z,22.3
2023-06-19T20:37:01.030Z,22
2023-06-19T20:39:01.044Z,21.9
2023-06-19T20:41:00.994Z,22
2023-06-19T20:43:01.152Z,21.9
2023-06-19T20:45:01.084Z,21.8
2023-06-19T20:47:01.853Z,21.9
2023-06-19T20:51:01.077Z,21.8
2023-06-19T20:52:01.026Z,22
2023-06-19T20:53:01.041Z,21.8
2023-06-19T20:54:01.061Z,21.9
2023-06-19T20:57:01.048Z,21.6
2023-06-19T20:59:01.072Z,21.9
2023-06-19T21:00:01.192Z,21.8
2023-06-19T21:03:01.392Z,21.5
2023-06-19T21:05:01.043Z,21.5
2023-06-19T21:07:01.161Z,21.6
2023-06-19T21:08:01.171Z,21.5
2023-06-19T21:12:01.443Z,21.3
2023-06-19T21:14:01.221Z,21.4
2023-06-19T21:16:00.976Z,21.4
2023-06-19T21:20:00.993Z,21.2
2023-06-19T21:21:01.024Z,21
2023-06-19T21:23:01.103Z,20.9
2023-06-19T21:25:01.023Z,20.9
2023-06-19T21:27:01.021Z,20.8
2023-06-19T21:29:01.014Z,20.8
2023-06-19T21:30:01.066Z,20.7
2023-06-19T21:32:00.961Z,20.7
2023-06-19T21:36:01.002Z,20.8
2023-06-19T21:38:00.968Z,20.7
2023-06-19T21:39:00.975Z,20.9
2023-06-19T21:41:00.965Z,20.6
2023-06-19T21:42:00.957Z,20.8
2023-06-19T21:43:00.956Z,20.6
2023-06-19T21:45:01.058Z,20.6
2023-06-19T21:47:01.006Z,20.8
2023-06-19T21:50:00.956Z,20.6
2023-06-19T21:53:00.967Z,20.8
2023-06-19T22:02:01.010Z,20.5
2023-06-19T22:03:01.118Z,20.7
2023-06-19T22:07:00.977Z,20.3
2023-06-19T22:08:00.985Z,20.4
2023-06-19T22:09:01.095Z,20.5
2023-06-19T22:13:00.981Z,20.3
2023-06-19T22:14:00.986Z,20.2
2023-06-19T22:15:01.068Z,20.3
2023-06-19T22:17:00.977Z,20.3
2023-06-19T22:20:01.013Z,20.5
2023-06-19T22:23:01.009Z,20.1
2023-06-19T22:24:01.016Z,20.3
2023-06-19T22:26:00.969Z,20.1
2023-06-19T22:27:01.015Z,20
2023-06-19T22:29:00.972Z,20.1
2023-06-19T22:31:01.014Z,20.2
2023-06-19T22:33:01.070Z,20.2
2023-06-19T22:35:01.004Z,20.1
2023-06-19T22:37:00.961Z,20.2
2023-06-19T22:38:01.018Z,20.1
2023-06-19T22:40:00.964Z,20.1
2023-06-19T22:41:00.990Z,20
2023-06-19T22:42:01.023Z,19.9
2023-06-19T22:43:01.033Z,20
2023-06-19T22:45:01.279Z,19.9
2023-06-19T22:47:00.974Z,20
2023-06-19T22:51:01.135Z,19.9
2023-06-19T22:53:00.953Z,19.8
2023-06-19T22:54:01.002Z,19.9
2023-06-19T22:55:00.966Z,19.8
2023-06-19T22:56:01.046Z,19.7
2023-06-19T22:58:01.003Z,19.7
2023-06-19T23:00:02.738Z,19.7
2023-06-19T23:03:01.130Z,19.5
2023-06-19T23:05:00.977Z,19.6
2023-06-19T23:08:00.972Z,19.7
2023-06-19T23:10:00.978Z,19.6
2023-06-19T23:12:00.937Z,19.8
2023-06-19T23:13:00.976Z,19.7
2023-06-19T23:15:00.993Z,19.7
2023-06-19T23:18:00.985Z,19.5
2023-06-19T23:19:00.974Z,19.6
2023-06-19T23:21:00.985Z,19.6
2023-06-19T23:23:00.968Z,19.5
2023-06-19T23:25:00.959Z,19.6
2023-06-19T23:26:00.996Z,19.4
2023-06-19T23:27:00.999Z,19.6
2023-06-19T23:29:00.977Z,19.5
2023-06-19T23:30:00.981Z,19.4
2023-06-19T23:32:00.956Z,19.4
2023-06-19T23:33:01.049Z,19.6
2023-06-19T23:39:00.982Z,19.5
2023-06-19T23:42:00.986Z,19.4
2023-06-19T23:44:00.942Z,19.5
2023-06-19T23:45:01.113Z,19.4
2023-06-19T23:47:00.980Z,19.6
2023-06-19T23:49:00.951Z,19.6
2023-06-19T23:50:00.984Z,19.4
2023-06-19T23:51:01.009Z,19.5
2023-06-19T23:54:01.038Z,19.6
2023-06-19T23:59:00.990Z,19.7
